sensor_id;sensor_type;location;lat;lon;timestamp;P1;durP1;ratioP1;P2;durP2;ratioP2
69325;SDS011;56471;53.508;49.252;2023-04-03T00:02:16;23.38;;;10.10;;
69325;SDS011;56471;53.508;49.252;2023-04-03T00:04:42;24.95;;;9.68;;
69325;SDS011;56471;53.508;49.252;2023-04-03T00:07:08;22.45;;;9.13;;
69325;SDS011;56471;53.508;49.252;2023-04-03T00:09:34;21.10;;;8.65;;
69325;SDS011;56471;53.508;49.252;2023-04-03T00:12:00;20.52;;;8.90;;
69325;SDS011;56471;53.508;49.252;2023-04-03T00:14:25;19.42;;;8.63;;
69325;SDS011;56471;53.508;49.252;2023-04-03T00:16:52;18.83;;;8.55;;
69325;SDS011;56471;53.508;49.252;2023-04-03T00:19:18;17.88;;;8.23;;
69325;SDS011;56471;53.508;49.252;2023-04-03T00:21:43;18.02;;;7.63;;
69325;SDS011;56471;53.508;49.252;2023-04-03T00:24:09;16.77;;;7.53;;
69325;SDS011;56471;53.508;49.252;2023-04-03T00:26:35;18.42;;;7.40;;
69325;SDS011;56471;53.508;49.252;2023-04-03T00:29:01;19.27;;;7.30;;
69325;SDS011;56471;53.508;49.252;2023-04-03T00:31:26;13.45;;;7.05;;
69325;SDS011;56471;53.508;49.252;2023-04-03T00:33:52;14.77;;;6.22;;
69325;SDS011;56471;53.508;49.252;2023-04-03T00:36:18;15.30;;;6.50;;
69325;SDS011;56471;53.508;49.252;2023-04-03T00:38:44;15.02;;;6.40;;
69325;SDS011;56471;53.508;49.252;2023-04-03T00:41:10;22.17;;;6.78;;
69325;SDS011;56471;53.508;49.252;2023-04-03T00:43:35;15.23;;;5.93;;
69325;SDS011;56471;53.508;49.252;2023-04-03T00:46:01;13.68;;;5.60;;
69325;SDS011;56471;53.508;49.252;2023-04-03T00:48:29;16.63;;;5.57;;
69325;SDS011;56471;53.508;49.252;2023-04-03T00:51:07;11.35;;;5.07;;
69325;SDS011;56471;53.508;49.252;2023-04-03T00:53:46;10.02;;;4.78;;
69325;SDS011;56471;53.508;49.252;2023-04-03T00:56:16;11.38;;;5.10;;
69325;SDS011;56471;53.508;49.252;2023-04-03T00:59:30;12.05;;;4.70;;
69325;SDS011;56471;53.508;49.252;2023-04-03T01:01:35;9.52;;;4.38;;
69325;SDS011;56471;53.508;49.252;2023-04-03T01:04:01;11.13;;;4.80;;
69325;SDS011;56471;53.508;49.252;2023-04-03T01:06:28;8.15;;;4.15;;
69325;SDS011;56471;53.508;49.252;2023-04-03T01:08:57;9.80;;;4.63;;
69325;SDS011;56471;53.508;49.252;2023-04-03T01:11:24;8.73;;;4.00;;
69325;SDS011;56471;53.508;49.252;2023-04-03T01:13:51;7.00;;;3.90;;
69325;SDS011;56471;53.508;49.252;2023-04-03T01:16:17;9.27;;;3.90;;
69325;SDS011;56471;53.508;49.252;2023-04-03T01:18:43;6.60;;;3.78;;
69325;SDS011;56471;53.508;49.252;2023-04-03T01:24:27;7.63;;;3.20;;
69325;SDS011;56471;53.508;49.252;2023-04-03T01:27:01;8.38;;;3.72;;
69325;SDS011;56471;53.508;49.252;2023-04-03T01:29:29;7.88;;;3.60;;
69325;SDS011;56471;53.508;49.252;2023-04-03T01:31:56;8.02;;;3.50;;
69325;SDS011;56471;53.508;49.252;2023-04-03T01:34:23;8.73;;;3.40;;
69325;SDS011;56471;53.508;49.252;2023-04-03T01:36:49;9.23;;;3.47;;
69325;SDS011;56471;53.508;49.252;2023-04-03T01:39:16;6.00;;;3.30;;
69325;SDS011;56471;53.508;49.252;2023-04-03T01:41:42;7.40;;;2.95;;
69325;SDS011;56471;53.508;49.252;2023-04-03T01:44:08;10.52;;;3.20;;
69325;SDS011;56471;53.508;49.252;2023-04-03T01:46:34;6.68;;;3.08;;
69325;SDS011;56471;53.508;49.252;2023-04-03T01:48:59;5.75;;;2.97;;
69325;SDS011;56471;53.508;49.252;2023-04-03T01:51:25;5.72;;;2.70;;
69325;SDS011;56471;53.508;49.252;2023-04-03T01:53:51;6.88;;;2.90;;
69325;SDS011;56471;53.508;49.252;2023-04-03T01:56:16;5.50;;;2.78;;
69325;SDS011;56471;53.508;49.252;2023-04-03T01:58:42;5.35;;;2.90;;
69325;SDS011;56471;53.508;49.252;2023-04-03T02:01:08;6.55;;;2.80;;
69325;SDS011;56471;53.508;49.252;2023-04-03T02:03:33;5.22;;;2.65;;
69325;SDS011;56471;53.508;49.252;2023-04-03T02:05:59;5.65;;;2.38;;
69325;SDS011;56471;53.508;49.252;2023-04-03T02:08:25;4.32;;;2.38;;
69325;SDS011;56471;53.508;49.252;2023-04-03T02:10:51;6.53;;;2.70;;
69325;SDS011;56471;53.508;49.252;2023-04-03T02:13:17;9.38;;;2.80;;
69325;SDS011;56471;53.508;49.252;2023-04-03T02:15:43;5.28;;;2.88;;
69325;SDS011;56471;53.508;49.252;2023-04-03T02:18:10;7.22;;;2.90;;
69325;SDS011;56471;53.508;49.252;2023-04-03T02:20:36;4.20;;;2.70;;
69325;SDS011;56471;53.508;49.252;2023-04-03T02:23:02;6.47;;;2.83;;
69325;SDS011;56471;53.508;49.252;2023-04-03T02:25:30;8.68;;;2.60;;
69325;SDS011;56471;53.508;49.252;2023-04-03T02:27:56;4.43;;;2.65;;
69325;SDS011;56471;53.508;49.252;2023-04-03T02:30:22;4.45;;;2.63;;
69325;SDS011;56471;53.508;49.252;2023-04-03T02:32:48;4.82;;;2.65;;
69325;SDS011;56471;53.508;49.252;2023-04-03T02:35:13;4.88;;;2.72;;
69325;SDS011;56471;53.508;49.252;2023-04-03T02:37:39;6.03;;;2.40;;
69325;SDS011;56471;53.508;49.252;2023-04-03T02:40:05;5.05;;;2.70;;
69325;SDS011;56471;53.508;49.252;2023-04-03T02:42:32;5.05;;;2.92;;
69325;SDS011;56471;53.508;49.252;2023-04-03T02:44:58;6.90;;;2.88;;
69325;SDS011;56471;53.508;49.252;2023-04-03T02:47:25;5.13;;;2.60;;
69325;SDS011;56471;53.508;49.252;2023-04-03T02:49:52;6.13;;;2.80;;
69325;SDS011;56471;53.508;49.252;2023-04-03T02:52:18;4.20;;;2.70;;
69325;SDS011;56471;53.508;49.252;2023-04-03T02:54:43;5.35;;;2.75;;
69325;SDS011;56471;53.508;49.252;2023-04-03T02:57:09;6.47;;;2.38;;
69325;SDS011;56471;53.508;49.252;2023-04-03T02:59:35;5.18;;;2.53;;
69325;SDS011;56471;53.508;49.252;2023-04-03T03:02:06;7.30;;;2.58;;
69325;SDS011;56471;53.508;49.252;2023-04-03T03:04:32;6.55;;;2.67;;
69325;SDS011;56471;53.508;49.252;2023-04-03T03:06:58;7.07;;;2.80;;
69325;SDS011;56471;53.508;49.252;2023-04-03T03:09:24;4.70;;;2.63;;
69325;SDS011;56471;53.508;49.252;2023-04-03T03:11:59;7.80;;;2.53;;
69325;SDS011;56471;53.508;49.252;2023-04-03T03:14:25;4.88;;;2.50;;
69325;SDS011;56471;53.508;49.252;2023-04-03T03:16:59;5.97;;;2.70;;
69325;SDS011;56471;53.508;49.252;2023-04-03T03:19:25;6.95;;;2.60;;
69325;SDS011;56471;53.508;49.252;2023-04-03T03:21:53;6.20;;;2.50;;
69325;SDS011;56471;53.508;49.252;2023-04-03T03:24:27;5.18;;;2.40;;
69325;SDS011;56471;53.508;49.252;2023-04-03T03:26:53;4.40;;;2.55;;
69325;SDS011;56471;53.508;49.252;2023-04-03T03:29:18;6.68;;;2.60;;
69325;SDS011;56471;53.508;49.252;2023-04-03T03:31:44;6.80;;;2.63;;
69325;SDS011;56471;53.508;49.252;2023-04-03T03:34:10;5.53;;;2.47;;
69325;SDS011;56471;53.508;49.252;2023-04-03T03:36:36;8.30;;;2.38;;
69325;SDS011;56471;53.508;49.252;2023-04-03T03:39:02;6.40;;;2.47;;
69325;SDS011;56471;53.508;49.252;2023-04-03T03:41:28;5.68;;;2.50;;
69325;SDS011;56471;53.508;49.252;2023-04-03T03:43:53;12.52;;;2.63;;
69325;SDS011;56471;53.508;49.252;2023-04-03T03:46:19;6.45;;;2.50;;
69325;SDS011;56471;53.508;49.252;2023-04-03T03:48:45;4.43;;;2.60;;
69325;SDS011;56471;53.508;49.252;2023-04-03T03:51:11;3.50;;;2.45;;
69325;SDS011;56471;53.508;49.252;2023-04-03T03:53:36;6.15;;;2.90;;
69325;SDS011;56471;53.508;49.252;2023-04-03T03:56:02;5.82;;;2.33;;
69325;SDS011;56471;53.508;49.252;2023-04-03T03:58:28;5.75;;;2.58;;
69325;SDS011;56471;53.508;49.252;2023-04-03T04:00:54;6.75;;;3.00;;
69325;SDS011;56471;53.508;49.252;2023-04-03T04:03:20;6.22;;;2.70;;
69325;SDS011;56471;53.508;49.252;2023-04-03T04:05:46;8.00;;;2.90;;
69325;SDS011;56471;53.508;49.252;2023-04-03T04:08:12;7.97;;;2.42;;
69325;SDS011;56471;53.508;49.252;2023-04-03T04:10:37;5.32;;;3.08;;
69325;SDS011;56471;53.508;49.252;2023-04-03T04:13:03;7.20;;;2.58;;
69325;SDS011;56471;53.508;49.252;2023-04-03T04:15:29;5.90;;;2.85;;
69325;SDS011;56471;53.508;49.252;2023-04-03T04:17:56;9.95;;;3.15;;
69325;SDS011;56471;53.508;49.252;2023-04-03T04:20:22;5.78;;;2.58;;
69325;SDS011;56471;53.508;49.252;2023-04-03T04:22:47;6.03;;;2.83;;
69325;SDS011;56471;53.508;49.252;2023-04-03T04:25:13;7.40;;;2.53;;
69325;SDS011;56471;53.508;49.252;2023-04-03T04:27:39;6.90;;;2.80;;
69325;SDS011;56471;53.508;49.252;2023-04-03T04:30:05;6.93;;;2.70;;
69325;SDS011;56471;53.508;49.252;2023-04-03T04:32:31;6.63;;;2.65;;
69325;SDS011;56471;53.508;49.252;2023-04-03T04:34:57;7.25;;;2.90;;
69325;SDS011;56471;53.508;49.252;2023-04-03T04:37:22;5.78;;;2.53;;
69325;SDS011;56471;53.508;49.252;2023-04-03T04:39:48;5.57;;;2.60;;
69325;SDS011;56471;53.508;49.252;2023-04-03T04:42:14;11.68;;;3.03;;
69325;SDS011;56471;53.508;49.252;2023-04-03T04:44:40;12.00;;;3.30;;
69325;SDS011;56471;53.508;49.252;2023-04-03T04:47:06;7.65;;;3.15;;
69325;SDS011;56471;53.508;49.252;2023-04-03T04:49:31;10.98;;;3.15;;
69325;SDS011;56471;53.508;49.252;2023-04-03T04:51:57;11.82;;;2.75;;
69325;SDS011;56471;53.508;49.252;2023-04-03T04:54:23;9.82;;;2.97;;
69325;SDS011;56471;53.508;49.252;2023-04-03T04:56:48;6.22;;;3.00;;
69325;SDS011;56471;53.508;49.252;2023-04-03T04:59:14;16.55;;;3.60;;
69325;SDS011;56471;53.508;49.252;2023-04-03T05:01:40;11.85;;;2.80;;
69325;SDS011;56471;53.508;49.252;2023-04-03T05:04:06;11.73;;;2.78;;
69325;SDS011;56471;53.508;49.252;2023-04-03T05:06:31;9.18;;;3.10;;
69325;SDS011;56471;53.508;49.252;2023-04-03T05:08:58;6.00;;;2.60;;
69325;SDS011;56471;53.508;49.252;2023-04-03T05:11:24;7.25;;;2.97;;
69325;SDS011;56471;53.508;49.252;2023-04-03T05:13:50;8.30;;;2.60;;
69325;SDS011;56471;53.508;49.252;2023-04-03T05:16:16;10.00;;;3.08;;
69325;SDS011;56471;53.508;49.252;2023-04-03T05:18:42;8.90;;;2.63;;
69325;SDS011;56471;53.508;49.252;2023-04-03T05:21:07;6.93;;;2.45;;
69325;SDS011;56471;53.508;49.252;2023-04-03T05:23:33;6.72;;;2.30;;
69325;SDS011;56471;53.508;49.252;2023-04-03T05:25:58;5.53;;;2.53;;
69325;SDS011;56471;53.508;49.252;2023-04-03T05:28:24;9.90;;;2.50;;
69325;SDS011;56471;53.508;49.252;2023-04-03T05:30:53;3.97;;;2.45;;
69325;SDS011;56471;53.508;49.252;2023-04-03T05:33:23;5.75;;;2.10;;
69325;SDS011;56471;53.508;49.252;2023-04-03T05:35:49;5.45;;;2.40;;
69325;SDS011;56471;53.508;49.252;2023-04-03T05:38:15;7.75;;;2.80;;
69325;SDS011;56471;53.508;49.252;2023-04-03T05:40:40;8.65;;;2.47;;
69325;SDS011;56471;53.508;49.252;2023-04-03T05:43:06;7.97;;;2.20;;
69325;SDS011;56471;53.508;49.252;2023-04-03T05:45:32;4.90;;;2.20;;
69325;SDS011;56471;53.508;49.252;2023-04-03T05:47:57;4.80;;;2.17;;
69325;SDS011;56471;53.508;49.252;2023-04-03T05:50:23;4.45;;;2.15;;
69325;SDS011;56471;53.508;49.252;2023-04-03T05:52:49;6.82;;;2.47;;
69325;SDS011;56471;53.508;49.252;2023-04-03T05:55:17;6.00;;;2.40;;
69325;SDS011;56471;53.508;49.252;2023-04-03T05:57:43;7.22;;;2.40;;
69325;SDS011;56471;53.508;49.252;2023-04-03T06:00:10;7.63;;;2.40;;
69325;SDS011;56471;53.508;49.252;2023-04-03T06:02:39;5.03;;;2.00;;
69325;SDS011;56471;53.508;49.252;2023-04-03T06:05:05;6.47;;;2.20;;
69325;SDS011;56471;53.508;49.252;2023-04-03T06:07:32;7.05;;;2.60;;
69325;SDS011;56471;53.508;49.252;2023-04-03T06:09:57;9.52;;;2.15;;
69325;SDS011;56471;53.508;49.252;2023-04-03T06:12:23;4.95;;;1.80;;
69325;SDS011;56471;53.508;49.252;2023-04-03T06:14:49;7.57;;;1.90;;
69325;SDS011;56471;53.508;49.252;2023-04-03T06:17:15;3.70;;;1.90;;
69325;SDS011;56471;53.508;49.252;2023-04-03T06:19:43;3.78;;;1.80;;
69325;SDS011;56471;53.508;49.252;2023-04-03T06:22:08;5.60;;;2.40;;
69325;SDS011;56471;53.508;49.252;2023-04-03T06:24:34;6.20;;;2.20;;
69325;SDS011;56471;53.508;49.252;2023-04-03T06:27:00;6.32;;;1.92;;
69325;SDS011;56471;53.508;49.252;2023-04-03T06:29:26;9.40;;;2.05;;
69325;SDS011;56471;53.508;49.252;2023-04-03T06:31:51;6.38;;;1.85;;
69325;SDS011;56471;53.508;49.252;2023-04-03T06:34:17;3.38;;;1.88;;
69325;SDS011;56471;53.508;49.252;2023-04-03T06:36:43;5.38;;;1.92;;
69325;SDS011;56471;53.508;49.252;2023-04-03T06:39:17;6.13;;;2.00;;
69325;SDS011;56471;53.508;49.252;2023-04-03T06:41:48;5.55;;;2.15;;
69325;SDS011;56471;53.508;49.252;2023-04-03T06:44:15;4.82;;;2.10;;
69325;SDS011;56471;53.508;49.252;2023-04-03T06:46:41;3.83;;;1.90;;
69325;SDS011;56471;53.508;49.252;2023-04-03T06:49:07;4.68;;;2.08;;
69325;SDS011;56471;53.508;49.252;2023-04-03T06:51:34;4.88;;;2.00;;
69325;SDS011;56471;53.508;49.252;2023-04-03T06:54:00;4.38;;;1.92;;
69325;SDS011;56471;53.508;49.252;2023-04-03T06:56:27;5.05;;;1.90;;
69325;SDS011;56471;53.508;49.252;2023-04-03T06:58:53;5.07;;;2.00;;
69325;SDS011;56471;53.508;49.252;2023-04-03T07:01:22;6.80;;;2.10;;
69325;SDS011;56471;53.508;49.252;2023-04-03T07:03:50;2.83;;;1.85;;
69325;SDS011;56471;53.508;49.252;2023-04-03T07:06:16;4.57;;;1.88;;
69325;SDS011;56471;53.508;49.252;2023-04-03T07:08:43;6.15;;;2.22;;
69325;SDS011;56471;53.508;49.252;2023-04-03T07:11:11;6.43;;;1.90;;
69325;SDS011;56471;53.508;49.252;2023-04-03T07:13:37;2.97;;;2.10;;
69325;SDS011;56471;53.508;49.252;2023-04-03T07:16:03;4.57;;;2.00;;
69325;SDS011;56471;53.508;49.252;2023-04-03T07:18:30;4.57;;;1.92;;
69325;SDS011;56471;53.508;49.252;2023-04-03T07:20:57;4.20;;;2.00;;
69325;SDS011;56471;53.508;49.252;2023-04-03T07:23:23;4.07;;;1.80;;
69325;SDS011;56471;53.508;49.252;2023-04-03T07:25:50;5.80;;;2.00;;
69325;SDS011;56471;53.508;49.252;2023-04-03T07:28:17;4.93;;;2.08;;
69325;SDS011;56471;53.508;49.252;2023-04-03T07:33:14;4.10;;;2.10;;
69325;SDS011;56471;53.508;49.252;2023-04-03T07:35:41;6.90;;;1.88;;
69325;SDS011;56471;53.508;49.252;2023-04-03T07:38:08;7.35;;;2.00;;
69325;SDS011;56471;53.508;49.252;2023-04-03T07:40:34;6.10;;;2.40;;
69325;SDS011;56471;53.508;49.252;2023-04-03T07:43:00;4.55;;;1.75;;
69325;SDS011;56471;53.508;49.252;2023-04-03T07:45:26;8.82;;;1.98;;
69325;SDS011;56471;53.508;49.252;2023-04-03T07:47:52;8.13;;;2.17;;
69325;SDS011;56471;53.508;49.252;2023-04-03T07:50:18;5.95;;;1.67;;
69325;SDS011;56471;53.508;49.252;2023-04-03T07:52:44;4.22;;;2.03;;
69325;SDS011;56471;53.508;49.252;2023-04-03T07:55:12;7.95;;;1.90;;
69325;SDS011;56471;53.508;49.252;2023-04-03T07:57:38;6.10;;;1.95;;
69325;SDS011;56471;53.508;49.252;2023-04-03T08:00:04;620.75;;;467.02;;
69325;SDS011;56471;53.508;49.252;2023-04-03T08:02:31;701.60;;;531.17;;
69325;SDS011;56471;53.508;49.252;2023-04-03T08:05:00;794.63;;;610.35;;
69325;SDS011;56471;53.508;49.252;2023-04-03T08:07:26;786.53;;;605.55;;
69325;SDS011;56471;53.508;49.252;2023-04-03T08:09:52;744.20;;;579.17;;
69325;SDS011;56471;53.508;49.252;2023-04-03T08:12:17;698.58;;;547.35;;
69325;SDS011;56471;53.508;49.252;2023-04-03T08:14:43;667.00;;;521.15;;
69325;SDS011;56471;53.508;49.252;2023-04-03T08:17:09;633.20;;;495.77;;
69325;SDS011;56471;53.508;49.252;2023-04-03T08:19:37;605.53;;;466.77;;
69325;SDS011;56471;53.508;49.252;2023-04-03T08:22:03;575.17;;;437.67;;
69325;SDS011;56471;53.508;49.252;2023-04-03T08:24:30;542.22;;;407.00;;
69325;SDS011;56471;53.508;49.252;2023-04-03T08:26:57;519.83;;;379.55;;
69325;SDS011;56471;53.508;49.252;2023-04-03T08:29:22;490.83;;;357.27;;
69325;SDS011;56471;53.508;49.252;2023-04-03T08:31:48;472.83;;;341.55;;
69325;SDS011;56471;53.508;49.252;2023-04-03T08:34:15;443.55;;;319.42;;
69325;SDS011;56471;53.508;49.252;2023-04-03T08:36:42;428.52;;;304.55;;
69325;SDS011;56471;53.508;49.252;2023-04-03T08:39:08;406.85;;;290.40;;
69325;SDS011;56471;53.508;49.252;2023-04-03T08:41:35;393.10;;;274.10;;
69325;SDS011;56471;53.508;49.252;2023-04-03T08:46:54;342.15;;;233.95;;
69325;SDS011;56471;53.508;49.252;2023-04-03T08:49:47;330.33;;;223.43;;
69325;SDS011;56471;53.508;49.252;2023-04-03T08:52:19;304.48;;;197.95;;
69325;SDS011;56471;53.508;49.252;2023-04-03T08:54:56;285.73;;;184.50;;
69325;SDS011;56471;53.508;49.252;2023-04-03T08:57:30;261.85;;;166.63;;
69325;SDS011;56471;53.508;49.252;2023-04-03T09:02:29;231.55;;;140.55;;
69325;SDS011;56471;53.508;49.252;2023-04-03T09:04:59;217.77;;;133.45;;
69325;SDS011;56471;53.508;49.252;2023-04-03T09:07:36;205.38;;;127.50;;
69325;SDS011;56471;53.508;49.252;2023-04-03T09:10:08;371.58;;;268.15;;
69325;SDS011;56471;53.508;49.252;2023-04-03T09:12:49;801.60;;;620.75;;
69325;SDS011;56471;53.508;49.252;2023-04-03T09:15:23;893.78;;;667.13;;
69325;SDS011;56471;53.508;49.252;2023-04-03T09:18:04;830.88;;;635.65;;
69325;SDS011;56471;53.508;49.252;2023-04-03T09:20:49;767.85;;;596.10;;
69325;SDS011;56471;53.508;49.252;2023-04-03T09:25:56;667.25;;;518.63;;
69325;SDS011;56471;53.508;49.252;2023-04-03T09:28:31;641.17;;;498.45;;
69325;SDS011;56471;53.508;49.252;2023-04-03T09:31:00;607.38;;;468.85;;
69325;SDS011;56471;53.508;49.252;2023-04-03T09:33:27;582.42;;;448.08;;
69325;SDS011;56471;53.508;49.252;2023-04-03T09:35:55;553.97;;;416.98;;
69325;SDS011;56471;53.508;49.252;2023-04-03T09:38:21;535.75;;;401.35;;
69325;SDS011;56471;53.508;49.252;2023-04-03T09:45:43;473.67;;;342.35;;
69325;SDS011;56471;53.508;49.252;2023-04-03T09:53:28;421.73;;;297.05;;
69325;SDS011;56471;53.508;49.252;2023-04-03T09:55:53;404.85;;;287.42;;
69325;SDS011;56471;53.508;49.252;2023-04-03T09:58:33;396.10;;;277.38;;
69325;SDS011;56471;53.508;49.252;2023-04-03T10:01:06;437.38;;;308.83;;
69325;SDS011;56471;53.508;49.252;2023-04-03T10:04:29;628.38;;;473.50;;
69325;SDS011;56471;53.508;49.252;2023-04-03T10:06:50;1290.00;;;790.75;;
69325;SDS011;56471;53.508;49.252;2023-04-03T10:09:22;1148.68;;;727.58;;
69325;SDS011;56471;53.508;49.252;2023-04-03T10:11:59;1036.18;;;654.30;;
69325;SDS011;56471;53.508;49.252;2023-04-03T10:14:53;942.63;;;594.30;;
69325;SDS011;56471;53.508;49.252;2023-04-03T10:17:37;841.50;;;518.00;;
69325;SDS011;56471;53.508;49.252;2023-04-03T10:23:17;576.38;;;337.50;;
69325;SDS011;56471;53.508;49.252;2023-04-03T10:31:31;389.50;;;234.48;;
69325;SDS011;56471;53.508;49.252;2023-04-03T10:36:53;255.15;;;150.57;;
69325;SDS011;56471;53.508;49.252;2023-04-03T10:47:38;571.10;;;365.38;;
69325;SDS011;56471;53.508;49.252;2023-04-03T10:58:40;408.42;;;219.05;;
69325;SDS011;56471;53.508;49.252;2023-04-03T11:01:09;735.55;;;434.60;;
69325;SDS011;56471;53.508;49.252;2023-04-03T11:03:43;1415.05;;;800.72;;
69325;SDS011;56471;53.508;49.252;2023-04-03T11:06:15;1380.25;;;787.47;;
69325;SDS011;56471;53.508;49.252;2023-04-03T11:09:02;1290.47;;;759.40;;
69325;SDS011;56471;53.508;49.252;2023-04-03T11:11:36;1279.00;;;756.80;;
69325;SDS011;56471;53.508;49.252;2023-04-03T11:16:39;1180.55;;;719.70;;
69325;SDS011;56471;53.508;49.252;2023-04-03T11:19:18;1148.72;;;712.83;;
69325;SDS011;56471;53.508;49.252;2023-04-03T11:22:02;1108.63;;;693.63;;
69325;SDS011;56471;53.508;49.252;2023-04-03T11:24:31;1054.47;;;670.95;;
69325;SDS011;56471;53.508;49.252;2023-04-03T11:26:58;1019.22;;;658.05;;
69325;SDS011;56471;53.508;49.252;2023-04-03T11:29:32;986.00;;;638.50;;
69325;SDS011;56471;53.508;49.252;2023-04-03T11:32:13;941.28;;;622.45;;
69325;SDS011;56471;53.508;49.252;2023-04-03T11:34:49;883.75;;;587.97;;
69325;SDS011;56471;53.508;49.252;2023-04-03T11:40:07;839.45;;;557.42;;
69325;SDS011;56471;53.508;49.252;2023-04-03T11:42:52;804.23;;;538.33;;
69325;SDS011;56471;53.508;49.252;2023-04-03T11:51:02;740.22;;;488.20;;
69325;SDS011;56471;53.508;49.252;2023-04-03T11:53:11;699.00;;;461.95;;
69325;SDS011;56471;53.508;49.252;2023-04-03T11:55:53;688.53;;;443.10;;
69325;SDS011;56471;53.508;49.252;2023-04-03T11:59:14;727.70;;;491.52;;
69325;SDS011;56471;53.508;49.252;2023-04-03T12:01:43;1181.32;;;767.40;;
69325;SDS011;56471;53.508;49.252;2023-04-03T12:04:12;1191.25;;;776.28;;
69325;SDS011;56471;53.508;49.252;2023-04-03T12:06:47;1145.47;;;761.30;;
69325;SDS011;56471;53.508;49.252;2023-04-03T12:09:26;1126.03;;;756.38;;
69325;SDS011;56471;53.508;49.252;2023-04-03T12:11:56;1081.18;;;735.58;;
69325;SDS011;56471;53.508;49.252;2023-04-03T12:14:26;1032.20;;;716.63;;
69325;SDS011;56471;53.508;49.252;2023-04-03T12:16:54;1003.80;;;708.20;;
69325;SDS011;56471;53.508;49.252;2023-04-03T12:22:12;932.47;;;670.35;;
69325;SDS011;56471;53.508;49.252;2023-04-03T12:24:47;874.60;;;636.63;;
69325;SDS011;56471;53.508;49.252;2023-04-03T12:30:01;954.28;;;671.35;;
69325;SDS011;56471;53.508;49.252;2023-04-03T12:35:24;1134.45;;;739.25;;
69325;SDS011;56471;53.508;49.252;2023-04-03T12:38:15;1116.50;;;737.47;;
69325;SDS011;56471;53.508;49.252;2023-04-03T12:43:59;1999.90;;;991.25;;
69325;SDS011;56471;53.508;49.252;2023-04-03T12:46:50;1712.38;;;868.28;;
69325;SDS011;56471;53.508;49.252;2023-04-03T12:51:51;1338.65;;;778.15;;
69325;SDS011;56471;53.508;49.252;2023-04-03T12:59:35;828.80;;;589.63;;
69325;SDS011;56471;53.508;49.252;2023-04-03T13:02:02;761.28;;;547.63;;
69325;SDS011;56471;53.508;49.252;2023-04-03T13:04:28;660.53;;;473.08;;
69325;SDS011;56471;53.508;49.252;2023-04-03T13:06:55;585.65;;;397.48;;
69325;SDS011;56471;53.508;49.252;2023-04-03T13:11:47;506.08;;;335.92;;
69325;SDS011;56471;53.508;49.252;2023-04-03T13:14:24;468.35;;;309.05;;
69325;SDS011;56471;53.508;49.252;2023-04-03T13:17:03;441.77;;;284.85;;
69325;SDS011;56471;53.508;49.252;2023-04-03T13:19:37;408.75;;;257.20;;
69325;SDS011;56471;53.508;49.252;2023-04-03T13:24:54;349.48;;;210.70;;
69325;SDS011;56471;53.508;49.252;2023-04-03T13:27:22;332.45;;;199.50;;
69325;SDS011;56471;53.508;49.252;2023-04-03T13:29:52;325.85;;;193.23;;
69325;SDS011;56471;53.508;49.252;2023-04-03T13:32:22;297.63;;;164.20;;
69325;SDS011;56471;53.508;49.252;2023-04-03T13:34:50;269.80;;;149.35;;
69325;SDS011;56471;53.508;49.252;2023-04-03T13:37:23;263.02;;;144.88;;
69325;SDS011;56471;53.508;49.252;2023-04-03T13:40:24;241.80;;;130.38;;
69325;SDS011;56471;53.508;49.252;2023-04-03T13:42:43;210.98;;;109.72;;
69325;SDS011;56471;53.508;49.252;2023-04-03T13:47:51;194.93;;;97.88;;
69325;SDS011;56471;53.508;49.252;2023-04-03T13:55:24;165.50;;;83.55;;
69325;SDS011;56471;53.508;49.252;2023-04-03T14:03:11;144.10;;;71.32;;
69325;SDS011;56471;53.508;49.252;2023-04-03T14:05:53;137.27;;;66.40;;
69325;SDS011;56471;53.508;49.252;2023-04-03T14:08:19;717.92;;;482.35;;
69325;SDS011;56471;53.508;49.252;2023-04-03T14:10:46;1364.13;;;765.17;;
69325;SDS011;56471;53.508;49.252;2023-04-03T14:13:15;1999.90;;;953.55;;
69325;SDS011;56471;53.508;49.252;2023-04-03T14:15:43;1471.90;;;796.40;;
69325;SDS011;56471;53.508;49.252;2023-04-03T14:18:11;1165.38;;;680.50;;
69325;SDS011;56471;53.508;49.252;2023-04-03T14:20:38;947.88;;;567.55;;
69325;SDS011;56471;53.508;49.252;2023-04-03T14:23:04;685.75;;;392.40;;
69325;SDS011;56471;53.508;49.252;2023-04-03T14:25:29;505.15;;;294.80;;
69325;SDS011;56471;53.508;49.252;2023-04-03T14:27:55;1290.00;;;759.17;;
69325;SDS011;56471;53.508;49.252;2023-04-03T14:30:25;1055.50;;;689.08;;
69325;SDS011;56471;53.508;49.252;2023-04-03T14:32:53;949.60;;;637.50;;
69325;SDS011;56471;53.508;49.252;2023-04-03T14:35:19;910.95;;;622.08;;
69325;SDS011;56471;53.508;49.252;2023-04-03T14:37:46;885.25;;;603.03;;
69325;SDS011;56471;53.508;49.252;2023-04-03T14:40:14;864.40;;;589.30;;
69325;SDS011;56471;53.508;49.252;2023-04-03T14:42:42;815.38;;;559.65;;
69325;SDS011;56471;53.508;49.252;2023-04-03T14:45:10;780.45;;;536.13;;
69325;SDS011;56471;53.508;49.252;2023-04-03T14:47:41;747.83;;;509.63;;
69325;SDS011;56471;53.508;49.252;2023-04-03T14:50:16;706.70;;;478.30;;
69325;SDS011;56471;53.508;49.252;2023-04-03T14:52:46;701.70;;;463.77;;
69325;SDS011;56471;53.508;49.252;2023-04-03T14:55:14;663.08;;;433.00;;
69325;SDS011;56471;53.508;49.252;2023-04-03T14:57:41;615.80;;;400.33;;
69325;SDS011;56471;53.508;49.252;2023-04-03T15:00:12;602.50;;;377.92;;
69325;SDS011;56471;53.508;49.252;2023-04-03T15:02:42;563.67;;;352.73;;
69325;SDS011;56471;53.508;49.252;2023-04-03T15:05:09;540.28;;;335.55;;
69325;SDS011;56471;53.508;49.252;2023-04-03T15:07:37;1466.40;;;772.42;;
69325;SDS011;56471;53.508;49.252;2023-04-03T15:10:16;982.42;;;627.97;;
69325;SDS011;56471;53.508;49.252;2023-04-03T15:12:44;821.13;;;529.33;;
69325;SDS011;56471;53.508;49.252;2023-04-03T15:15:10;656.58;;;385.30;;
69325;SDS011;56471;53.508;49.252;2023-04-03T15:17:36;571.63;;;331.48;;
69325;SDS011;56471;53.508;49.252;2023-04-03T15:20:03;492.40;;;285.77;;
69325;SDS011;56471;53.508;49.252;2023-04-03T15:22:36;436.52;;;254.20;;
69325;SDS011;56471;53.508;49.252;2023-04-03T15:25:02;395.80;;;220.07;;
69325;SDS011;56471;53.508;49.252;2023-04-03T15:27:28;373.98;;;205.35;;
69325;SDS011;56471;53.508;49.252;2023-04-03T15:29:53;348.65;;;186.90;;
69325;SDS011;56471;53.508;49.252;2023-04-03T15:32:22;328.77;;;175.95;;
69325;SDS011;56471;53.508;49.252;2023-04-03T15:34:47;321.20;;;161.13;;
69325;SDS011;56471;53.508;49.252;2023-04-03T15:37:13;293.27;;;149.82;;
69325;SDS011;56471;53.508;49.252;2023-04-03T15:39:39;277.67;;;141.90;;
69325;SDS011;56471;53.508;49.252;2023-04-03T15:42:05;271.33;;;135.45;;
69325;SDS011;56471;53.508;49.252;2023-04-03T15:44:31;252.55;;;130.27;;
69325;SDS011;56471;53.508;49.252;2023-04-03T15:47:00;246.48;;;126.38;;
69325;SDS011;56471;53.508;49.252;2023-04-03T15:49:27;233.48;;;119.78;;
69325;SDS011;56471;53.508;49.252;2023-04-03T15:51:53;227.13;;;114.90;;
69325;SDS011;56471;53.508;49.252;2023-04-03T15:54:19;214.90;;;109.32;;
69325;SDS011;56471;53.508;49.252;2023-04-03T15:56:44;863.65;;;618.53;;
69325;SDS011;56471;53.508;49.252;2023-04-03T15:59:10;1069.30;;;711.60;;